Time;durP1;ratioP1;P1;durP2;ratioP2;P2;SDS_P1;SDS_P2;PMS_P1;PMS_P2;Temp;Humidity;BMP_temperature;BMP_pressure;BME280_temperature;BME280_humidity;BME280_pressure;Samples;Min_cycle;Max_cycle;Signal;HPM_P1;HPM_P2
2023/12/28 00:01:20;;;;;;;6.05;2.00;;;7.00;99.90;;;;;;5003784;28;20118;-62
2023/12/28 00:03:45;;;;;;;6.05;2.28;;;7.00;99.90;;;;;;5004236;28;20691;-63
2023/12/28 00:06:11;;;;;;;2.90;2.10;;;7.00;99.90;;;;;;5002649;28;20099;-63
2023/12/28 00:08:37;;;;;;;8.20;2.25;;;7.00;99.90;;;;;;5005043;28;20029;-63
2023/12/28 00:11:03;;;;;;;4.63;2.28;;;7.00;99.90;;;;;;5002343;28;20414;-63
2023/12/28 00:13:28;;;;;;;5.18;2.00;;;7.10;99.90;;;;;;5001957;28;20829;-63
2023/12/28 00:15:54;;;;;;;4.28;2.13;;;7.10;99.90;;;;;;5002574;28;20030;-63
2023/12/28 00:18:20;;;;;;;6.95;2.20;;;7.10;99.90;;;;;;5006524;28;20037;-63
2023/12/28 00:20:46;;;;;;;3.35;2.28;;;7.00;99.90;;;;;;5004247;28;20033;-63
2023/12/28 00:23:11;;;;;;;5.07;2.40;;;7.10;99.90;;;;;;5000905;28;20513;-63
2023/12/28 00:25:37;;;;;;;2.55;1.83;;;7.10;99.90;;;;;;5005598;28;20723;-63
2023/12/28 00:28:03;;;;;;;6.35;2.20;;;7.00;99.90;;;;;;5002877;28;20034;-63
2023/12/28 00:30:29;;;;;;;5.50;2.55;;;6.80;99.90;;;;;;5006063;28;20792;-63
2023/12/28 00:32:55;;;;;;;3.35;2.15;;;6.80;99.90;;;;;;5006798;28;20113;-63
2023/12/28 00:35:20;;;;;;;4.95;2.40;;;6.80;99.90;;;;;;5007166;28;20022;-63
2023/12/28 00:37:46;;;;;;;3.75;2.05;;;6.90;99.90;;;;;;5003096;28;20026;-63
2023/12/28 00:40:12;;;;;;;5.43;2.03;;;6.90;99.90;;;;;;5005556;28;20411;-63
2023/12/28 00:42:40;;;;;;;3.90;1.90;;;7.00;99.90;;;;;;5005000;28;20114;-62
2023/12/28 00:45:08;;;;;;;3.92;2.35;;;6.90;99.90;;;;;;5003638;28;20026;-63
2023/12/28 00:47:34;;;;;;;3.13;1.92;;;7.00;99.90;;;;;;5006380;28;20025;-63
2023/12/28 00:49:59;;;;;;;5.18;2.03;;;7.00;99.90;;;;;;4999389;28;20034;-63
2023/12/28 00:52:25;;;;;;;3.63;1.83;;;6.90;99.90;;;;;;5003700;28;20064;-63
2023/12/28 00:54:51;;;;;;;4.35;1.65;;;6.80;99.90;;;;;;5000874;28;20037;-63
2023/12/28 00:57:17;;;;;;;4.85;2.10;;;6.60;99.90;;;;;;5006505;28;20022;-63
2023/12/28 00:59:43;;;;;;;6.10;1.95;;;6.50;99.90;;;;;;5001480;28;20105;-63
2023/12/28 01:02:09;;;;;;;4.60;2.10;;;6.50;99.90;;;;;;5005197;28;20035;-63
2023/12/28 01:04:35;;;;;;;3.75;2.10;;;6.60;99.90;;;;;;4999812;28;20153;-63
2023/12/28 01:07:04;;;;;;;2.70;1.77;;;6.50;99.90;;;;;;5003491;28;20088;-63
2023/12/28 01:09:32;;;;;;;4.50;1.90;;;6.60;99.90;;;;;;5004380;28;20088;-63
2023/12/28 01:11:58;;;;;;;4.00;1.95;;;6.60;99.90;;;;;;5000132;28;20035;-63
2023/12/28 01:14:24;;;;;;;3.22;1.77;;;6.60;99.90;;;;;;5001908;28;20525;-63
2023/12/28 01:16:50;;;;;;;3.00;1.50;;;6.60;99.90;;;;;;5003070;28;20046;-63
2023/12/28 01:19:16;;;;;;;3.20;1.63;;;6.60;99.90;;;;;;5004017;28;20038;-63
2023/12/28 01:21:42;;;;;;;3.95;1.92;;;6.70;99.90;;;;;;5001656;28;20027;-63
2023/12/28 01:24:07;;;;;;;4.20;1.58;;;6.80;99.90;;;;;;5000896;28;20048;-63
2023/12/28 01:26:34;;;;;;;2.65;1.35;;;6.90;99.90;;;;;;5004886;28;20084;-63
2023/12/28 01:29:02;;;;;;;4.43;1.52;;;6.90;99.90;;;;;;5005600;28;20160;-63
2023/12/28 01:31:29;;;;;;;2.45;1.67;;;6.90;99.90;;;;;;5006255;28;20037;-63
2023/12/28 01:33:55;;;;;;;3.35;1.50;;;7.00;99.90;;;;;;5002621;28;20045;-63
2023/12/28 01:36:21;;;;;;;2.55;1.52;;;7.00;99.90;;;;;;5003225;28;20029;-63
2023/12/28 01:38:48;;;;;;;8.80;1.60;;;7.00;99.90;;;;;;5001870;28;20046;-62
2023/12/28 01:41:15;;;;;;;3.67;1.58;;;7.00;99.90;;;;;;5019398;28;20451;-62
2023/12/28 01:43:42;;;;;;;2.35;1.42;;;7.10;99.90;;;;;;5003914;28;20030;-63
2023/12/28 01:46:12;;;;;;;2.63;1.40;;;7.20;99.90;;;;;;5003586;28;20720;-63
2023/12/28 01:48:38;;;;;;;1.83;1.13;;;7.30;99.90;;;;;;5000750;28;20180;-63
2023/12/28 01:51:04;;;;;;;3.47;1.17;;;7.40;99.90;;;;;;4998040;28;20037;-63
2023/12/28 01:53:30;;;;;;;3.67;1.17;;;7.40;99.90;;;;;;5004446;28;20482;-63
2023/12/28 01:55:57;;;;;;;1.60;0.80;;;7.50;99.90;;;;;;5002793;28;20797;-63
2023/12/28 01:58:23;;;;;;;3.95;1.33;;;7.60;99.90;;;;;;5005796;28;20103;-63
2023/12/28 02:00:50;;;;;;;3.75;1.30;;;7.60;99.90;;;;;;5005542;28;20561;-63
2023/12/28 02:03:16;;;;;;;4.75;1.20;;;7.60;99.90;;;;;;5005517;28;20029;-63
2023/12/28 02:05:42;;;;;;;3.17;1.30;;;7.60;99.90;;;;;;5000182;28;20044;-63
2023/12/28 02:08:08;;;;;;;4.72;1.50;;;7.60;99.90;;;;;;5000371;28;20041;-63
2023/12/28 02:10:33;;;;;;;2.75;1.20;;;7.50;99.90;;;;;;5002986;28;20474;-63
2023/12/28 02:12:59;;;;;;;1.60;1.08;;;7.50;99.90;;;;;;5000440;28;20414;-63
2023/12/28 02:15:25;;;;;;;1.73;0.95;;;7.50;99.90;;;;;;5005363;28;20022;-63
2023/12/28 02:17:54;;;;;;;1.75;0.85;;;7.60;99.90;;;;;;5002894;28;20795;-63
2023/12/28 02:20:20;;;;;;;1.98;1.30;;;7.60;99.90;;;;;;5002313;28;20051;-63
2023/12/28 02:22:47;;;;;;;1.27;0.93;;;7.60;99.90;;;;;;4999756;28;20022;-63
2023/12/28 02:25:14;;;;;;;1.45;1.02;;;7.70;99.90;;;;;;5004328;28;20033;-63
2023/12/28 02:27:42;;;;;;;5.15;1.08;;;7.80;99.90;;;;;;5003353;28;20045;-63
2023/12/28 02:30:10;;;;;;;1.73;0.90;;;7.90;99.90;;;;;;5005319;28;20103;-63
2023/12/28 02:32:42;;;;;;;3.67;1.40;;;8.00;99.90;;;;;;5003348;28;20034;-63
2023/12/28 02:35:29;;;;;;;1.83;1.00;;;8.20;99.90;;;;;;5000473;28;20045;-63
2023/12/28 02:37:59;;;;;;;1.65;0.95;;;8.20;99.90;;;;;;4996246;28;20026;-62
2023/12/28 02:40:26;;;;;;;1.48;0.93;;;8.20;99.90;;;;;;5004943;28;20026;-63
2023/12/28 02:42:52;;;;;;;1.50;1.10;;;8.20;99.90;;;;;;4994845;28;20027;-63
2023/12/28 02:45:19;;;;;;;3.10;1.05;;;8.30;99.90;;;;;;5001748;28;20479;-63
2023/12/28 02:47:45;;;;;;;1.25;0.85;;;8.30;99.90;;;;;;5003474;28;20053;-63
2023/12/28 02:50:10;;;;;;;1.58;1.05;;;8.30;99.90;;;;;;5003920;28;20696;-62
2023/12/28 02:52:36;;;;;;;2.13;1.02;;;8.40;99.90;;;;;;4982565;28;20128;-63
2023/12/28 02:55:02;;;;;;;2.95;1.23;;;8.40;99.90;;;;;;5001786;28;20542;-63
2023/12/28 02:57:28;;;;;;;0.98;0.90;;;8.50;99.90;;;;;;5001958;28;20026;-63
2023/12/28 02:59:56;;;;;;;1.67;0.93;;;8.50;99.90;;;;;;5003766;28;20064;-63
2023/12/28 03:02:23;;;;;;;2.53;0.93;;;8.50;99.90;;;;;;5002304;28;20049;-63
2023/12/28 03:04:49;;;;;;;1.75;0.88;;;8.50;99.90;;;;;;4999450;28;20026;-63
2023/12/28 03:07:14;;;;;;;1.90;1.02;;;8.50;99.90;;;;;;4998650;28;20034;-63
2023/12/28 03:09:40;;;;;;;1.08;0.93;;;8.60;99.90;;;;;;4998963;28;20022;-63
2023/12/28 03:12:06;;;;;;;6.35;1.05;;;8.60;99.90;;;;;;5004096;28;20121;-63
2023/12/28 03:14:32;;;;;;;2.15;1.05;;;8.70;99.90;;;;;;5004527;28;20025;-63
2023/12/28 03:16:58;;;;;;;0.75;0.75;;;8.70;99.90;;;;;;4994522;28;20088;-63
2023/12/28 03:19:23;;;;;;;2.00;1.05;;;8.60;99.70;;;;;;4998777;28;20022;-63
2023/12/28 03:21:49;;;;;;;2.03;0.90;;;8.70;99.80;;;;;;5001212;28;20030;-63
2023/12/28 03:24:15;;;;;;;2.28;1.05;;;8.70;99.50;;;;;;5003403;28;20080;-63
2023/12/28 03:26:41;;;;;;;3.80;1.35;;;8.90;99.90;;;;;;5001612;28;20038;-63
2023/12/28 03:29:08;;;;;;;1.35;1.00;;;9.00;99.90;;;;;;5005731;28;20113;-63
2023/12/28 03:31:38;;;;;;;1.15;1.00;;;9.20;99.90;;;;;;5003357;28;20034;-63
2023/12/28 03:34:04;;;;;;;1.83;0.80;;;9.20;99.90;;;;;;4996747;28;20087;-63
2023/12/28 03:36:29;;;;;;;1.00;0.95;;;9.30;99.90;;;;;;5000570;28;20033;-63
2023/12/28 03:38:55;;;;;;;2.00;0.80;;;9.40;99.90;;;;;;5001105;28;20093;-63
2023/12/28 03:41:21;;;;;;;3.25;0.98;;;9.30;99.90;;;;;;5003925;28;20026;-63
2023/12/28 03:43:49;;;;;;;2.42;1.50;;;9.10;99.90;;;;;;4998629;28;20080;-63
2023/12/28 03:46:15;;;;;;;3.67;1.52;;;9.10;99.90;;;;;;4999843;28;20050;-63
2023/12/28 03:48:40;;;;;;;1.45;0.75;;;9.10;99.90;;;;;;5001557;28;20065;-63
2023/12/28 03:51:06;;;;;;;1.67;1.27;;;8.90;99.90;;;;;;5000780;28;20030;-63
2023/12/28 03:53:32;;;;;;;1.23;1.05;;;8.90;99.90;;;;;;5003928;28;20124;-63
2023/12/28 03:55:58;;;;;;;1.50;1.00;;;8.80;99.90;;;;;;4996262;28;20045;-63
2023/12/28 03:58:25;;;;;;;3.20;0.88;;;8.90;99.90;;;;;;5001771;28;20037;-63
2023/12/28 04:00:52;;;;;;;1.00;0.85;;;9.00;99.90;;;;;;5000875;28;20466;-63
2023/12/28 04:03:18;;;;;;;1.92;0.90;;;9.20;99.90;;;;;;5001774;28;20026;-63
2023/12/28 04:05:44;;;;;;;1.13;0.75;;;9.20;99.90;;;;;;4995976;28;20520;-63
2023/12/28 04:08:10;;;;;;;2.67;0.98;;;9.30;99.90;;;;;;4999796;28;20034;-63
2023/12/28 04:10:38;;;;;;;2.63;1.08;;;9.20;99.90;;;;;;4979645;28;20399;-63
2023/12/28 04:13:04;;;;;;;1.80;0.90;;;9.10;99.90;;;;;;5002295;28;20034;-63
2023/12/28 04:15:30;;;;;;;1.00;0.65;;;8.90;99.90;;;;;;5003069;28;20034;-63
2023/12/28 04:17:57;;;;;;;2.17;1.05;;;8.90;99.90;;;;;;4999837;28;20113;-63
2023/12/28 04:20:23;;;;;;;2.15;0.90;;;8.90;99.90;;;;;;5003840;28;20176;-63
2023/12/28 04:22:49;;;;;;;1.30;1.00;;;8.90;99.90;;;;;;4998205;28;20030;-63
2023/12/28 04:25:16;;;;;;;1.67;1.00;;;8.90;99.90;;;;;;4997558;28;20030;-63
2023/12/28 04:27:43;;;;;;;0.88;0.80;;;8.90;99.90;;;;;;4999969;28;20057;-63
2023/12/28 04:30:12;;;;;;;1.95;0.82;;;9.00;99.90;;;;;;4994961;28;20034;-63
2023/12/28 04:32:39;;;;;;;2.20;0.85;;;9.10;99.90;;;;;;4995995;28;20059;-63
2023/12/28 04:35:05;;;;;;;2.28;0.95;;;9.10;99.90;;;;;;5001556;28;20022;-66
2023/12/28 04:37:35;;;;;;;1.02;0.80;;;9.10;99.90;;;;;;5003486;28;20030;-63
2023/12/28 04:40:03;;;;;;;1.67;0.82;;;9.20;99.90;;;;;;4998416;28;20054;-64
2023/12/28 04:42:29;;;;;;;1.27;0.95;;;9.40;99.90;;;;;;5004486;28;20430;-63
2023/12/28 04:44:54;;;;;;;1.98;1.10;;;9.50;99.90;;;;;;5007351;28;20028;-63
2023/12/28 04:47:20;;;;;;;2.72;1.23;;;9.50;99.90;;;;;;5002901;28;20029;-64
2023/12/28 04:49:46;;;;;;;1.35;0.88;;;9.40;99.90;;;;;;5003017;28;20026;-63
2023/12/28 04:52:11;;;;;;;1.88;0.90;;;9.30;99.90;;;;;;5005763;28;20030;-63
2023/12/28 04:54:40;;;;;;;2.03;1.30;;;9.30;99.90;;;;;;5003451;28;20030;-63
2023/12/28 04:57:08;;;;;;;1.70;0.77;;;9.20;99.90;;;;;;5003207;28;20037;-64
2023/12/28 04:59:41;;;;;;;1.13;0.52;;;9.30;99.90;;;;;;5005497;28;20101;-64
2023/12/28 05:02:07;;;;;;;2.25;0.88;;;9.40;99.90;;;;;;5004916;28;20100;-63
2023/12/28 05:04:33;;;;;;;2.25;0.90;;;9.50;99.90;;;;;;5003444;28;20128;-63
2023/12/28 05:06:59;;;;;;;2.22;0.77;;;9.50;99.90;;;;;;5000080;28;20506;-63
2023/12/28 05:09:25;;;;;;;2.88;0.90;;;9.70;99.90;;;;;;5002327;28;20120;-63
2023/12/28 05:11:50;;;;;;;1.20;0.88;;;9.80;99.90;;;;;;5000560;28;20078;-63
2023/12/28 05:14:16;;;;;;;1.60;0.73;;;9.80;99.90;;;;;;5005833;28;20064;-63
2023/12/28 05:16:42;;;;;;;1.02;0.88;;;9.80;99.90;;;;;;5004415;28;20034;-63
2023/12/28 05:19:08;;;;;;;2.30;0.70;;;9.80;99.90;;;;;;5001697;28;20537;-63
2023/12/28 05:21:34;;;;;;;2.47;0.95;;;9.80;99.90;;;;;;5003394;28;20048;-63
2023/12/28 05:24:00;;;;;;;2.28;1.10;;;9.50;99.90;;;;;;4997137;28;20574;-63
2023/12/28 05:26:27;;;;;;;0.63;0.60;;;9.30;99.90;;;;;;5000116;28;20026;-63
2023/12/28 05:28:52;;;;;;;1.05;0.80;;;9.30;99.90;;;;;;4997475;28;20026;-62
2023/12/28 05:31:18;;;;;;;1.95;0.85;;;9.40;99.90;;;;;;5004464;28;20621;-63
2023/12/28 05:33:44;;;;;;;1.98;1.10;;;9.40;99.90;;;;;;4998840;28;20027;-63
2023/12/28 05:36:10;;;;;;;1.75;0.90;;;9.50;99.90;;;;;;5003845;28;20122;-63
2023/12/28 05:38:35;;;;;;;0.95;0.60;;;9.50;99.90;;;;;;5000042;28;20380;-63
2023/12/28 05:41:01;;;;;;;1.25;0.82;;;9.50;99.90;;;;;;5004318;28;20760;-63
2023/12/28 05:43:27;;;;;;;1.85;1.00;;;9.50;99.90;;;;;;5001658;28;20030;-63
2023/12/28 05:45:53;;;;;;;1.63;0.80;;;9.50;99.90;;;;;;5004558;28;20030;-64
2023/12/28 05:48:18;;;;;;;1.13;0.68;;;9.50;99.90;;;;;;5003783;28;20129;-63
2023/12/28 05:50:44;;;;;;;1.20;0.90;;;9.50;99.90;;;;;;5002419;28;20070;-63
2023/12/28 05:53:14;;;;;;;1.60;0.82;;;9.50;99.90;;;;;;5000725;28;20073;-63
2023/12/28 05:55:43;;;;;;;2.15;1.00;;;9.50;99.90;;;;;;5006430;28;20065;-63
2023/12/28 05:58:12;;;;;;;1.65;1.00;;;9.40;99.90;;;;;;5000700;28;20133;-63
2023/12/28 06:00:38;;;;;;;1.55;0.80;;;9.40;99.90;;;;;;4999928;28;20040;-65
2023/12/28 06:03:05;;;;;;;6.82;2.58;;;9.30;99.90;;;;;;5000926;28;20026;-64
2023/12/28 06:05:31;;;;;;;27.58;8.00;;;9.30;99.90;;;;;;5000149;28;20029;-63
2023/12/28 06:07:57;;;;;;;7.55;2.85;;;9.40;99.90;;;;;;5005386;28;20486;-63
2023/12/28 06:10:24;;;;;;;12.38;4.90;;;9.30;99.90;;;;;;4998997;28;20084;-63
2023/12/28 06:12:50;;;;;;;18.80;4.70;;;9.20;99.90;;;;;;5001261;28;20491;-63
2023/12/28 06:15:16;;;;;;;3.22;1.70;;;9.30;99.90;;;;;;4999931;28;20044;-63
2023/12/28 06:17:41;;;;;;;2.38;1.00;;;9.20;99.90;;;;;;5004866;28;20025;-63
2023/12/28 06:20:11;;;;;;;2.58;1.10;;;9.10;99.90;;;;;;4999977;28;20321;-63
2023/12/28 06:22:37;;;;;;;2.35;1.13;;;9.10;99.90;;;;;;5004155;28;20037;-63
2023/12/28 06:25:03;;;;;;;1.30;1.10;;;9.10;99.90;;;;;;4999981;28;20184;-62
2023/12/28 06:27:29;;;;;;;1.50;0.95;;;9.10;99.90;;;;;;5005069;28;20049;-63
2023/12/28 06:29:55;;;;;;;0.60;0.60;;;9.00;99.90;;;;;;4998118;28;20467;-63
2023/12/28 06:32:21;;;;;;;0.88;0.73;;;9.10;99.90;;;;;;5000919;28;20018;-64
2023/12/28 06:34:48;;;;;;;1.77;1.00;;;9.10;99.90;;;;;;4999668;28;20037;-63
2023/12/28 06:37:14;;;;;;;2.80;1.05;;;9.00;99.90;;;;;;5000850;28;20348;-64
2023/12/28 06:39:40;;;;;;;1.73;0.90;;;8.90;99.90;;;;;;5000721;28;20474;-63
2023/12/28 06:42:06;;;;;;;1.90;1.00;;;8.90;99.90;;;;;;4998131;28;20029;-63
2023/12/28 06:44:32;;;;;;;2.63;1.27;;;8.90;99.90;;;;;;5002044;28;20037;-63
2023/12/28 06:46:58;;;;;;;1.70;1.00;;;8.90;99.90;;;;;;5003325;28;20026;-63
2023/12/28 06:49:24;;;;;;;2.88;1.10;;;8.90;99.90;;;;;;5002699;28;20121;-64
2023/12/28 06:51:50;;;;;;;2.50;1.10;;;8.90;99.90;;;;;;5002500;28;20620;-63
2023/12/28 06:54:16;;;;;;;1.85;0.90;;;9.00;99.90;;;;;;5002292;28;20046;-63
2023/12/28 06:56:42;;;;;;;1.27;0.90;;;8.90;99.90;;;;;;4998991;28;20077;-63
2023/12/28 06:59:12;;;;;;;5.32;1.00;;;8.90;99.90;;;;;;5003798;28;20064;-63
2023/12/28 07:01:41;;;;;;;1.88;1.02;;;8.90;99.90;;;;;;4997844;28;20141;-63
2023/12/28 07:04:07;;;;;;;2.58;1.05;;;8.90;99.90;;;;;;5001276;28;20199;-63
2023/12/28 07:06:33;;;;;;;2.17;0.95;;;8.80;99.90;;;;;;5001400;28;20033;-63
2023/12/28 07:08:59;;;;;;;1.98;1.30;;;8.80;99.90;;;;;;4998779;28;20096;-63
2023/12/28 07:11:26;;;;;;;1.35;0.93;;;8.80;99.90;;;;;;5000237;28;20037;-63
2023/12/28 07:13:53;;;;;;;2.42;1.00;;;8.80;99.90;;;;;;4999221;28;20552;-63
2023/12/28 07:16:18;;;;;;;1.70;1.20;;;8.80;99.90;;;;;;5005114;28;20109;-64
2023/12/28 07:18:44;;;;;;;4.75;2.97;;;8.80;99.90;;;;;;5001688;28;20447;-63
2023/12/28 07:21:10;;;;;;;3.85;1.30;;;8.90;99.90;;;;;;5000103;28;20105;-64
2023/12/28 07:23:36;;;;;;;1.95;1.70;;;8.70;99.90;;;;;;4994840;28;20031;-63
2023/12/28 07:26:03;;;;;;;1.60;1.27;;;8.60;99.90;;;;;;4999649;28;20034;-63
2023/12/28 07:28:28;;;;;;;1.52;1.00;;;8.60;99.90;;;;;;4998199;28;20038;-63
2023/12/28 07:30:54;;;;;;;2.35;1.15;;;8.60;99.90;;;;;;4998980;28;20042;-63
2023/12/28 07:33:20;;;;;;;4.30;2.17;;;8.50;99.90;;;;;;4997568;28;20552;-64
2023/12/28 07:35:46;;;;;;;2.75;1.25;;;8.60;99.90;;;;;;5000912;28;20027;-63
2023/12/28 07:38:12;;;;;;;1.52;0.90;;;8.60;99.90;;;;;;5002975;28;20042;-63
2023/12/28 07:40:38;;;;;;;3.20;1.30;;;8.50;99.90;;;;;;5002814;28;20026;-63
2023/12/28 07:43:05;;;;;;;1.83;1.15;;;8.60;99.90;;;;;;4996582;28;20033;-63
2023/12/28 07:45:31;;;;;;;1.90;1.10;;;8.70;99.90;;;;;;5001381;28;20091;-63
2023/12/28 07:47:58;;;;;;;2.53;1.17;;;8.60;99.90;;;;;;4997974;28;20435;-63
2023/12/28 07:50:24;;;;;;;3.42;1.27;;;8.50;99.90;;;;;;5001216;28;20034;-63
2023/12/28 07:52:50;;;;;;;3.60;2.30;;;8.50;99.90;;;;;;4999151;28;20076;-63
2023/12/28 07:55:16;;;;;;;6.63;2.63;;;8.50;99.90;;;;;;5001291;28;20390;-63
2023/12/28 07:57:42;;;;;;;2.28;1.52;;;8.50;99.90;;;;;;4997219;28;20029;-63
2023/12/28 08:00:09;;;;;;;1.80;1.00;;;8.60;99.90;;;;;;4975697;28;20026;-64
2023/12/28 08:02:35;;;;;;;3.58;1.63;;;8.50;99.90;;;;;;4997145;28;20030;-67
2023/12/28 08:05:00;;;;;;;3.13;1.13;;;8.60;99.90;;;;;;5002544;28;20042;-68
2023/12/28 08:07:26;;;;;;;4.55;1.17;;;8.60;99.90;;;;;;5005515;28;20453;-66
2023/12/28 08:09:52;;;;;;;2.15;1.20;;;8.70;99.90;;;;;;5004996;28;20469;-66
2023/12/28 08:12:18;;;;;;;2.65;1.30;;;8.80;99.90;;;;;;5004823;28;20022;-66
2023/12/28 08:14:44;;;;;;;3.05;1.48;;;8.80;99.90;;;;;;5000005;28;20025;-64
2023/12/28 08:17:09;;;;;;;1.67;1.27;;;8.80;99.90;;;;;;5005477;28;20034;-66
2023/12/28 08:19:35;;;;;;;1.45;1.00;;;8.60;99.90;;;;;;5009418;28;20022;-66
2023/12/28 08:22:02;;;;;;;2.90;1.60;;;8.70;99.90;;;;;;5004558;28;20041;-66
2023/12/28 08:24:28;;;;;;;1.90;1.38;;;8.50;99.90;;;;;;5008948;28;20180;-65
2023/12/28 08:26:54;;;;;;;1.95;1.40;;;8.60;99.90;;;;;;5006506;28;20703;-66
2023/12/28 08:29:20;;;;;;;4.78;1.40;;;8.60;99.90;;;;;;5001253;28;20451;-66
2023/12/28 08:31:46;;;;;;;3.72;1.65;;;8.50;99.90;;;;;;5008335;28;20037;-65
2023/12/28 08:34:11;;;;;;;1.80;1.20;;;8.60;99.90;;;;;;5008983;28;20041;-66
2023/12/28 08:36:37;;;;;;;1.83;1.30;;;8.70;99.90;;;;;;5004908;28;20042;-67
2023/12/28 08:39:03;;;;;;;2.75;1.20;;;8.70;99.90;;;;;;5006981;28;20029;-65
2023/12/28 08:41:29;;;;;;;2.22;1.50;;;8.70;99.90;;;;;;5000213;28;20117;-65
2023/12/28 08:43:55;;;;;;;3.00;1.40;;;8.50;99.90;;;;;;5002814;28;20161;-64
2023/12/28 08:46:27;;;;;;;3.50;1.15;;;8.60;99.90;;;;;;5006371;28;20780;-65
2023/12/28 08:48:53;;;;;;;3.28;1.70;;;8.60;99.90;;;;;;5008451;28;20044;-65
2023/12/28 08:51:18;;;;;;;6.22;1.80;;;8.60;99.90;;;;;;5000584;28;20022;-65
2023/12/28 08:53:44;;;;;;;2.35;1.40;;;8.60;99.90;;;;;;5006706;28;20037;-65
2023/12/28 08:56:16;;;;;;;2.55;1.90;;;8.60;99.90;;;;;;5007060;28;20073;-65
2023/12/28 08:58:41;;;;;;;3.83;1.30;;;8.70;99.90;;;;;;5005362;28;20061;-64
2023/12/28 09:01:07;;;;;;;3.65;1.65;;;8.70;99.90;;;;;;4998294;28;20052;-64
2023/12/28 09:03:33;;;;;;;2.53;1.40;;;8.70;99.90;;;;;;5008240;28;20116;-64
2023/12/28 09:05:59;;;;;;;2.45;1.42;;;8.80;99.90;;;;;;5007100;28;20034;-66
2023/12/28 09:08:24;;;;;;;1.98;1.35;;;8.90;99.90;;;;;;5004748;28;20038;-66
2023/12/28 09:10:50;;;;;;;1.75;1.20;;;9.00;99.90;;;;;;5002815;28;20049;-66
2023/12/28 09:13:19;;;;;;;3.92;1.70;;;9.10;99.90;;;;;;5004131;28;20124;-67
2023/12/28 09:15:45;;;;;;;3.35;2.22;;;9.10;99.90;;;;;;5004968;28;20037;-66
2023/12/28 09:18:11;;;;;;;4.43;2.10;;;9.20;99.90;;;;;;5000831;28;20072;-66
2023/12/28 09:20:37;;;;;;;2.45;1.45;;;9.10;99.90;;;;;;5005658;28;20053;-66
2023/12/28 09:23:03;;;;;;;1.85;1.38;;;9.00;99.90;;;;;;5006059;28;20078;-64
2023/12/28 09:25:29;;;;;;;2.13;1.30;;;9.00;99.90;;;;;;5005722;28;20152;-65
2023/12/28 09:27:55;;;;;;;3.97;2.08;;;9.00;99.90;;;;;;5008014;28;20379;-65
2023/12/28 09:30:20;;;;;;;2.55;1.38;;;9.00;99.90;;;;;;5011440;28;20494;-64
2023/12/28 09:32:46;;;;;;;3.63;1.45;;;9.00;99.90;;;;;;4985441;28;20453;-65
2023/12/28 09:35:12;;;;;;;4.85;1.75;;;9.00;99.90;;;;;;5003521;28;20038;-64
2023/12/28 09:37:38;;;;;;;1.38;1.15;;;8.90;99.90;;;;;;5007364;28;20032;-65
2023/12/28 09:40:04;;;;;;;4.03;2.78;;;8.90;99.90;;;;;;5004576;28;20038;-64
2023/12/28 09:42:38;;;;;;;2.92;1.45;;;8.90;99.90;;;;;;5003439;28;20034;-65
2023/12/28 09:45:04;;;;;;;3.58;1.98;;;8.80;99.90;;;;;;5004995;28;20752;-65
2023/12/28 09:47:33;;;;;;;3.92;1.85;;;8.80;99.90;;;;;;5005819;28;20386;-65
2023/12/28 09:49:58;;;;;;;3.60;1.80;;;8.80;99.90;;;;;;5003836;28;20767;-64
2023/12/28 09:52:24;;;;;;;2.15;1.60;;;8.90;99.90;;;;;;5007350;28;20033;-65
2023/12/28 09:54:50;;;;;;;3.58;1.92;;;8.90;99.90;;;;;;5007458;28;20033;-65
2023/12/28 09:57:16;;;;;;;3.08;1.52;;;9.00;99.90;;;;;;5004350;28;20026;-65
2023/12/28 09:59:43;;;;;;;6.13;2.05;;;9.00;99.90;;;;;;5007459;28;20114;-64
2023/12/28 10:02:09;;;;;;;3.38;1.63;;;8.90;99.90;;;;;;5003824;28;20023;-65
2023/12/28 10:04:36;;;;;;;4.93;1.90;;;8.90;99.90;;;;;;5006248;28;20061;-65
2023/12/28 10:07:02;;;;;;;5.97;2.33;;;8.90;99.90;;;;;;5003455;28;20049;-65
2023/12/28 10:09:28;;;;;;;2.63;1.17;;;8.90;99.90;;;;;;5006663;28;20465;-66
2023/12/28 10:11:55;;;;;;;3.97;1.73;;;8.90;99.90;;;;;;5004700;28;20473;-66
2023/12/28 10:14:21;;;;;;;2.50;1.52;;;9.00;99.90;;;;;;5005926;28;20118;-66
2023/12/28 10:16:48;;;;;;;3.95;1.73;;;9.10;99.90;;;;;;5003085;28;20934;-66
2023/12/28 10:19:13;;;;;;;3.70;1.95;;;9.40;99.90;;;;;;5005516;28;20026;-66
2023/12/28 10:21:43;;;;;;;3.30;1.92;;;9.90;99.90;;;;;;5006752;28;20037;-66
2023/12/28 10:24:10;;;;;;;3.08;1.55;;;10.40;99.90;;;;;;5003764;28;20037;-64
2023/12/28 10:26:36;;;;;;;3.42;1.83;;;11.10;99.90;;;;;;5005856;28;20045;-65
2023/12/28 10:29:03;;;;;;;4.20;2.00;;;11.80;99.90;;;;;;5006646;28;20128;-66
2023/12/28 10:31:29;;;;;;;2.42;1.77;;;12.50;99.90;;;;;;5001527;28;20041;-65
2023/12/28 10:34:02;;;;;;;3.40;1.80;;;12.00;99.90;;;;;;5002842;28;20041;-65
2023/12/28 10:36:28;;;;;;;2.35;1.77;;;11.30;99.90;;;;;;5005240;28;20124;-65
2023/12/28 10:38:54;;;;;;;2.72;1.38;;;11.50;99.90;;;;;;5003827;28;20080;-64
2023/12/28 10:41:21;;;;;;;3.60;1.98;;;12.00;99.90;;;;;;4997978;28;20061;-65
2023/12/28 10:44:04;;;;;;;2.22;1.50;;;12.00;99.90;;;;;;5006500;28;20037;-65
2023/12/28 10:46:32;;;;;;;6.45;1.95;;;11.80;99.90;;;;;;5006212;28;20049;-64
2023/12/28 10:49:16;;;;;;;3.70;1.70;;;11.60;99.90;;;;;;5006751;28;20059;-64
2023/12/28 10:51:43;;;;;;;2.78;1.55;;;11.60;99.90;;;;;;5004596;28;20061;-64
2023/12/28 10:54:59;;;;;;;2.17;1.52;;;11.40;99.90;;;;;;5002351;28;20170;-64
2023/12/28 10:57:33;;;;;;;2.40;1.77;;;11.40;99.90;;;;;;4949799;28;20082;-65
2023/12/28 11:00:14;;;;;;;2.25;1.65;;;11.50;99.90;;;;;;4963882;28;20030;-64
2023/12/28 11:02:45;;;;;;;3.30;1.70;;;11.70;99.90;;;;;;4989493;28;20058;-65
2023/12/28 11:05:12;;;;;;;4.45;2.30;;;11.80;99.90;;;;;;5006208;28;20509;-65
2023/12/28 11:07:39;;;;;;;3.28;1.95;;;11.60;99.90;;;;;;5006098;28;20096;-65
2023/12/28 11:10:07;;;;;;;13.27;2.20;;;11.30;99.90;;;;;;5004041;28;20490;-65
2023/12/28 11:12:34;;;;;;;1.90;1.33;;;11.20;99.90;;;;;;5005085;28;20026;-65
2023/12/28 11:15:02;;;;;;;4.00;1.77;;;11.10;99.90;;;;;;5006032;28;20116;-65
2023/12/28 11:17:30;;;;;;;2.33;2.05;;;11.10;99.90;;;;;;4999594;28;20121;-67
2023/12/28 11:19:57;;;;;;;2.53;1.63;;;11.00;99.90;;;;;;5004169;28;20077;-65
2023/12/28 11:22:25;;;;;;;4.20;1.83;;;10.80;99.90;;;;;;5005927;28;20652;-66
2023/12/28 11:24:53;;;;;;;5.50;1.77;;;10.80;99.90;;;;;;5005574;28;20034;-66
2023/12/28 11:27:20;;;;;;;1.70;1.40;;;10.70;99.90;;;;;;5006157;28;20040;-66
2023/12/28 11:29:48;;;;;;;3.08;1.40;;;10.50;99.90;;;;;;4996312;28;20138;-66
2023/12/28 11:32:14;;;;;;;1.80;1.30;;;10.30;99.90;;;;;;5004489;28;20044;-65
2023/12/28 11:34:40;;;;;;;3.45;1.90;;;10.20;99.90;;;;;;5005857;28;20233;-64
2023/12/28 11:37:20;;;;;;;3.28;1.70;;;10.20;99.90;;;;;;4998087;28;20030;-65
2023/12/28 11:39:49;;;;;;;4.82;1.60;;;10.20;99.90;;;;;;5003536;28;20769;-64
2023/12/28 11:42:20;;;;;;;2.22;1.20;;;10.30;99.90;;;;;;5003202;28;20610;-63
2023/12/28 11:44:47;;;;;;;5.20;1.50;;;10.40;99.90;;;;;;5003415;28;20025;-64
2023/12/28 11:47:12;;;;;;;1.63;1.40;;;10.40;99.90;;;;;;5000067;28;20103;-64
2023/12/28 11:49:41;;;;;;;1.67;1.40;;;10.40;99.90;;;;;;5002004;28;20033;-64
2023/12/28 11:52:08;;;;;;;2.90;1.50;;;10.40;99.90;;;;;;4996889;28;20052;-64
2023/12/28 11:54:35;;;;;;;1.70;1.27;;;10.50;99.90;;;;;;5001818;28;20120;-64
2023/12/28 11:57:01;;;;;;;3.35;1.50;;;10.50;99.90;;;;;;4995568;28;20612;-63
2023/12/28 11:59:27;;;;;;;2.45;1.50;;;10.50;99.90;;;;;;5002579;28;20026;-64
2023/12/28 12:01:53;;;;;;;3.22;1.92;;;10.60;99.90;;;;;;4995086;28;20026;-64
2023/12/28 12:04:21;;;;;;;3.00;1.30;;;10.60;99.90;;;;;;5002118;28;20040;-64
2023/12/28 12:06:48;;;;;;;1.70;1.25;;;10.60;99.90;;;;;;4996717;28;20049;-64
2023/12/28 12:09:14;;;;;;;2.42;1.40;;;10.60;99.90;;;;;;5001790;28;20034;-64
2023/12/28 12:11:40;;;;;;;3.20;1.45;;;10.60;99.90;;;;;;4998258;28;20077;-64
2023/12/28 12:14:10;;;;;;;4.38;2.70;;;10.60;99.90;;;;;;5001334;28;20041;-64
2023/12/28 12:16:37;;;;;;;1.98;1.17;;;10.60;99.90;;;;;;4998740;28;20030;-63
2023/12/28 12:19:04;;;;;;;4.55;1.63;;;10.70;99.90;;;;;;5000883;28;20052;-65
2023/12/28 12:21:30;;;;;;;2.60;1.40;;;10.60;99.90;;;;;;5000293;28;20032;-63
2023/12/28 12:23:56;;;;;;;2.45;1.70;;;10.60;99.90;;;;;;4996622;28;20038;-65
2023/12/28 12:26:22;;;;;;;2.28;1.40;;;10.60;99.90;;;;;;5000605;28;20107;-65
2023/12/28 12:28:48;;;;;;;3.20;1.33;;;10.60;99.90;;;;;;5000486;28;20246;-63
2023/12/28 12:31:14;;;;;;;1.83;1.30;;;10.70;99.90;;;;;;4999487;28;20053;-64
2023/12/28 12:33:40;;;;;;;1.58;1.30;;;10.80;99.90;;;;;;5001722;28;20081;-65
2023/12/28 12:36:08;;;;;;;4.25;1.55;;;10.80;99.90;;;;;;4999978;28;20563;-65
2023/12/28 12:38:34;;;;;;;4.90;1.52;;;10.80;99.90;;;;;;4998006;28;20026;-64
2023/12/28 12:41:00;;;;;;;1.80;1.10;;;10.70;99.90;;;;;;5000302;28;20066;-64
2023/12/28 12:43:26;;;;;;;2.38;1.15;;;10.70;99.90;;;;;;5003468;28;20029;-64
2023/12/28 12:45:53;;;;;;;3.88;1.48;;;10.70;99.90;;;;;;4998406;28;20041;-64
2023/12/28 12:48:19;;;;;;;2.92;1.45;;;10.70;99.90;;;;;;5001053;28;20084;-65
2023/12/28 12:50:45;;;;;;;3.15;1.67;;;10.70;99.90;;;;;;4999488;28;20030;-65
2023/12/28 12:53:12;;;;;;;3.53;1.50;;;10.70;99.90;;;;;;4997043;28;20454;-65